M I D A S
Marine Information and Data Acquisition System
Tripno 1652 of the Zeeleeuw from 2009-03-03 07:48:57 to 2009-03-03 15:26:41
Back to CruiseResearch ActivitiesStationsMapUnderway DataData graphs

EquipmentUnitsComments
TimeDGPSUTC
LatitudeDGPSDM.mWGS84
LongitudeDGPSDM.mWGS84
SpeedMeteo Stationm/sRelative wind speed
DirectionMeteo StationdegRelative wind direction
TemperatureMeteo Stationdeg CelciusAir temperature
PressureMeteo StationPaAtmospheric pressure
HumidityMeteo Station%Relative humidity
Missing or incorrect values are displayed as -999
Metereological data collected by the RV Zeeleeuw from 2009-03-03 07:41:01 to 2009-03-03 15:35:30
Time Latitude Longitude Speed Direction Temperature Pressure Humidity
2009-03-03 07:42 51°13.673 2°55.923 2.8 1 5.6 101250 88
2009-03-03 07:43 51°13.688 2°55.857 3.5 32 5.6 101260 88
2009-03-03 07:44 51°13.697 2°55.783 5.3 55 5.7 101250 89
2009-03-03 07:45 51°13.71 2°55.773 3.3 41 5.7 101250 88
2009-03-03 07:46 51°13.703 2°55.764 3.2 55 5.7 101250 88
2009-03-03 07:47 51°13.731 2°55.739 4.2 305 5.8 101250 89
2009-03-03 07:48 51°13.826 2°55.639 3.9 304 5.8 101250 88
2009-03-03 07:49 51°13.969 2°55.531 1.5 330 5.8 101250 89
2009-03-03 07:50 51°14.117 2°55.421 3.1 303 5.8 101240 88
2009-03-03 07:51 51°14.258 2°55.263 4.2 303 5.8 101240 88
2009-03-03 07:52 51°14.381 2°55.058 7.1 308 5.8 101230 88
2009-03-03 07:53 51°14.518 2°54.862 8.8 305 5.8 101230 89
2009-03-03 07:54 51°14.649 2°54.631 8.9 310 5.8 101230 87
2009-03-03 07:55 51°14.775 2°54.363 12 306 5.8 101220 89
2009-03-03 07:56 51°14.828 2°54.044 10.8 305 5.8 101210 87
2009-03-03 07:57 51°14.872 2°53.719 13.5 308 5.8 101200 88
2009-03-03 07:58 51°14.939 2°53.412 9.4 303 5.7 101220 88
2009-03-03 07:59 51°15.016 2°53.106 12.1 304 5.7 101210 87
2009-03-03 08:00 51°15.081 2°52.793 12.7 304 5.7 101210 89
2009-03-03 08:01 51°15.146 2°52.472 11.4 307 5.7 101210 88
2009-03-03 08:02 51°15.213 2°52.162 12 310 5.7 101200 88
2009-03-03 08:03 51°15.273 2°51.835 12.2 302 5.7 101200 87
2009-03-03 08:04 51°15.322 2°51.513 12.8 308 5.7 101200 88
2009-03-03 08:05 51°15.368 2°51.185 12 304 5.7 101200 88
2009-03-03 08:06 51°15.373 2°50.852 13.9 305 5.7 101190 88
2009-03-03 08:07 51°15.363 2°50.514 14.9 307 5.7 101180 88
2009-03-03 08:08 51°15.345 2°50.183 13.8 280 5.8 101180 88
2009-03-03 08:09 51°15.327 2°49.852 13.7 304 5.8 101180 87
2009-03-03 08:10 51°15.302 2°49.529 12 306 5.8 101170 89
2009-03-03 08:11 51°15.282 2°49.198 14.1 307 5.8 101180 87
2009-03-03 08:12 51°15.264 2°48.867 12.1 303 5.9 101180 88
2009-03-03 08:13 51°15.25 2°48.534 14.1 310 5.9 101170 87
2009-03-03 08:14 51°15.234 2°48.201 12.8 306 5.9 101170 88
2009-03-03 08:15 51°15.212 2°47.871 11.9 308 5.9 101170 89
2009-03-03 08:16 51°15.196 2°47.541 13.9 283 5.9 101170 89
2009-03-03 08:17 51°15.212 2°47.209 13.2 283 5.9 101160 87
2009-03-03 08:18 51°15.227 2°46.868 13 309 6 101160 88
2009-03-03 08:19 51°15.237 2°46.536 12 286 6 101170 88
2009-03-03 08:20 51°15.237 2°46.199 15.4 306 6 101160 88
2009-03-03 08:21 51°15.237 2°45.859 11.6 277 6 101160 88
2009-03-03 08:22 51°15.235 2°45.522 14.6 308 6 101160 88
2009-03-03 08:23 51°15.233 2°45.18 12.4 282 6 101150 87
2009-03-03 08:24 51°15.233 2°44.841 14.4 303 6 101160 87
2009-03-03 08:25 51°15.229 2°44.499 14.8 279 6.1 101150 88
2009-03-03 08:26 51°15.231 2°44.155 14.4 304 6.1 101150 89
2009-03-03 08:27 51°15.228 2°43.822 11.7 306 6.1 101150 88
2009-03-03 08:28 51°15.224 2°43.487 12.2 306 6.1 101150 87
2009-03-03 08:29 51°15.223 2°43.15 15.1 308 6.1 101150 88
2009-03-03 08:30 51°15.227 2°42.812 13.4 278 6.1 101150 88
2009-03-03 08:31 51°15.221 2°42.474 14.5 277 6.2 101150 88
2009-03-03 08:32 51°15.212 2°42.138 13.9 306 6.1 101140 88
2009-03-03 08:33 51°15.205 2°41.802 14.1 306 6.2 101150 88
2009-03-03 08:34 51°15.199 2°41.46 13.8 304 6.2 101150 88
2009-03-03 08:35 51°15.193 2°41.13 14.5 305 6.2 101150 87
2009-03-03 08:36 51°15.187 2°40.793 14.6 305 6.2 101140 88
2009-03-03 08:37 51°15.183 2°40.452 14.9 286 6.2 101150 88
2009-03-03 08:38 51°15.174 2°40.118 14.4 308 6.3 101140 88
2009-03-03 08:39 51°15.164 2°39.783 13.6 307 6.2 101140 88
2009-03-03 08:40 51°15.154 2°39.446 12.2 306 6.2 101140 88
2009-03-03 08:41 51°15.144 2°39.108 12.6 281 6.2 101130 87
2009-03-03 08:42 51°15.182 2°38.781 11 308 6.2 101140 87
2009-03-03 08:43 51°15.259 2°38.461 12.6 284 6.2 101130 87
2009-03-03 08:44 51°15.359 2°38.164 11.6 308 6.3 101150 88
2009-03-03 08:45 51°15.463 2°37.872 10.6 303 6.3 101140 87
2009-03-03 08:46 51°15.562 2°37.566 9.9 304 6.3 101130 88
2009-03-03 08:47 51°15.664 2°37.259 11.2 305 6.3 101140 88
2009-03-03 08:48 51°15.737 2°36.936 13.5 307 6.3 101130 87
2009-03-03 08:49 51°15.791 2°36.602 10.6 282 6.3 101120 87
2009-03-03 08:50 51°15.851 2°36.271 10.5 303 6.3 101120 88
2009-03-03 08:51 51°16.008 2°36.062 6.4 281 6.3 101140 89
2009-03-03 08:52 51°16.2 2°35.924 4.7 308 6.3 101140 87
2009-03-03 08:53 51°16.405 2°35.836 4.1 281 6.3 101150 88
2009-03-03 08:54 51°16.604 2°35.763 4.4 281 6.3 101150 88
2009-03-03 08:55 51°16.8 2°35.675 5.2 280 6.3 101140 87
2009-03-03 08:56 51°16.994 2°35.565 5.3 281 6.3 101140 88
2009-03-03 08:57 51°17.184 2°35.431 7.7 304 6.3 101150 88
2009-03-03 08:58 51°17.376 2°35.29 6.7 308 6.3 101140 88
2009-03-03 08:59 51°17.559 2°35.116 7.2 281 6.4 101130 88
2009-03-03 09:00 51°17.732 2°34.92 7.6 304 6.3 101130 87
2009-03-03 09:01 51°17.852 2°34.649 11.9 281 6.4 101130 88
2009-03-03 09:02 51°17.905 2°34.315 12.2 305 6.4 101100 88
2009-03-03 09:03 51°17.971 2°33.982 10.8 307 6.4 101090 88
2009-03-03 09:04 51°18.043 2°33.656 13 304 6.4 101110 88
2009-03-03 09:05 51°18.112 2°33.329 12.9 287 6.4 101100 88
2009-03-03 09:06 51°18.184 2°33 12.1 303 6.4 101090 87
2009-03-03 09:07 51°18.255 2°32.686 13.4 284 6.5 101090 88
2009-03-03 09:08 51°18.327 2°32.363 15.7 286 6.5 101090 87
2009-03-03 09:09 51°18.397 2°32.047 12.3 307 6.5 101090 88
2009-03-03 09:10 51°18.466 2°31.727 12.4 287 6.5 101080 87
2009-03-03 09:11 51°18.536 2°31.407 12.7 304 6.6 101070 88
2009-03-03 09:12 51°18.606 2°31.084 14.6 286 6.6 101070 88
2009-03-03 09:13 51°18.676 2°30.763 12.9 303 6.6 101080 88
2009-03-03 09:14 51°18.743 2°30.442 11.7 281 6.6 101070 88
2009-03-03 09:15 51°18.81 2°30.119 13.7 310 6.6 101070 87
2009-03-03 09:16 51°18.876 2°29.798 14.5 304 6.5 101070 87
2009-03-03 09:17 51°18.95 2°29.457 15 284 6.5 101070 87
2009-03-03 09:18 51°19.023 2°29.113 12 303 6.6 101080 87
2009-03-03 09:19 51°19.065 2°28.772 13.1 282 6.5 101080 88
2009-03-03 09:20 51°18.965 2°28.484 16 325 6.5 101060 87
2009-03-03 09:21 51°18.832 2°28.225 13.4 328 6.5 101070 87
2009-03-03 09:22 51°18.671 2°28.007 17 329 6.5 101070 87
2009-03-03 09:23 51°18.514 2°27.783 16.7 280 6.5 101070 88
2009-03-03 09:24 51°18.357 2°27.557 15.4 327 6.5 101070 88
2009-03-03 09:25 51°18.199 2°27.326 14.9 285 6.5 101070 87
2009-03-03 09:26 51°18.039 2°27.096 15 285 6.5 101070 88
2009-03-03 09:27 51°17.879 2°26.87 15.9 326 6.5 101070 88
2009-03-03 09:28 51°17.719 2°26.642 17.1 281 6.5 101080 88
2009-03-03 09:29 51°17.555 2°26.422 17.5 327 6.5 101080 88
2009-03-03 09:30 51°17.395 2°26.193 17.6 283 6.5 101070 88
2009-03-03 09:31 51°17.237 2°25.969 16.5 327 6.6 101060 88
2009-03-03 09:32 51°17.074 2°25.743 15.4 286 6.5 101080 87
2009-03-03 09:33 51°16.908 2°25.526 14.4 330 6.5 101080 87
2009-03-03 09:34 51°16.711 2°25.458 15.9 283 6.5 101090 88
2009-03-03 09:35 51°16.512 2°25.439 13.4 341 6.5 101080 87
2009-03-03 09:36 51°16.349 2°25.427 11.5 282 6.5 101090 88
2009-03-03 09:37 51°16.253 2°25.347 11.6 309 6.5 101090 88
2009-03-03 09:38 51°16.252 2°25.259 9.5 281 6.5 101090 87
2009-03-03 09:39 51°16.261 2°25.238 5.5 305 6.4 101110 88
2009-03-03 09:40 51°16.271 2°25.219 6.5 281 6.4 101110 88
2009-03-03 09:41 51°16.28 2°25.203 5.2 285 6.4 101100 87
2009-03-03 09:42 51°16.289 2°25.19 5.7 282 6.4 101110 87
2009-03-03 09:43 51°16.297 2°25.177 5.1 284 6.4 101110 89
2009-03-03 09:44 51°16.305 2°25.16 5.6 278 6.4 101100 88
2009-03-03 09:45 51°16.353 2°25.091 6.1 280 6.3 101100 88
2009-03-03 09:46 51°16.479 2°25.09 4 55 6.3 101090 89
2009-03-03 09:47 51°16.655 2°25.083 4.6 80 6.4 101090 87
2009-03-03 09:48 51°16.851 2°25.081 3.8 60 6.4 101090 88
2009-03-03 09:49 51°17.044 2°25.098 3.3 284 6.4 101090 88
2009-03-03 09:50 51°17.235 2°25.109 1.8 51 6.4 101080 88
2009-03-03 09:51 51°17.402 2°25.219 2.5 28 6.4 101080 89
2009-03-03 09:52 51°17.511 2°25.44 5.3 25 6.4 101080 88
2009-03-03 09:53 51°17.616 2°25.679 3.8 25 6.3 101080 89
2009-03-03 09:54 51°17.719 2°25.911 4.3 26 6.3 101080 88
2009-03-03 09:55 51°17.828 2°26.15 3.8 19 6.3 101080 88
2009-03-03 09:56 51°17.937 2°26.379 4.1 17 6.3 101080 88
2009-03-03 09:57 51°18.046 2°26.619 4.1 18 6.3 101080 88
2009-03-03 09:58 51°18.154 2°26.852 4.3 25 6.3 101070 89
2009-03-03 09:59 51°18.278 2°27.081 3.7 32 6.3 101080 89
2009-03-03 10:00 51°18.404 2°27.298 4.7 33 6.3 101070 89
2009-03-03 10:01 51°18.523 2°27.535 5.5 31 6.3 101070 88
2009-03-03 10:02 51°18.633 2°27.774 4.6 26 6.3 101070 89
2009-03-03 10:03 51°18.751 2°28.016 5.3 30 6.3 101070 88
2009-03-03 10:04 51°18.864 2°28.256 5.6 29 6.3 101060 89
2009-03-03 10:05 51°18.977 2°28.508 4.9 27 6.3 101060 89
2009-03-03 10:06 51°19.041 2°28.775 9.8 10 6.3 101060 88
2009-03-03 10:07 51°19.018 2°29.071 8.9 9 6.3 101040 89
2009-03-03 10:08 51°18.98 2°29.338 11.2 7 6.4 101040 89
2009-03-03 10:09 51°18.933 2°29.606 9.2 6 6.4 101040 89
2009-03-03 10:10 51°18.885 2°29.87 8.7 9 6.4 101040 89
2009-03-03 10:11 51°18.828 2°30.155 10.1 5 6.4 101040 89
2009-03-03 10:12 51°18.777 2°30.441 8.9 6 6.4 101040 88
2009-03-03 10:13 51°18.705 2°30.731 10.3 3 6.4 101040 89
2009-03-03 10:14 51°18.625 2°31.006 10.2 -999 6.5 101040 88
2009-03-03 10:15 51°18.543 2°31.291 10.7 2 6.5 101030 88
2009-03-03 10:16 51°18.468 2°31.562 10.3 5 6.5 101040 88
2009-03-03 10:17 51°18.389 2°31.842 9.8 -999 6.5 101040 87
2009-03-03 10:18 51°18.313 2°32.114 10.5 -999 6.4 101050 88
2009-03-03 10:19 51°18.236 2°32.388 9.5 359 6.4 101040 87
2009-03-03 10:20 51°18.159 2°32.667 11.4 358 6.4 101040 87
2009-03-03 10:21 51°18.09 2°32.939 9.8 1 6.3 101030 89
2009-03-03 10:22 51°18.03 2°33.226 8.9 -999 6.3 101040 89
2009-03-03 10:23 51°17.974 2°33.507 8.2 360 6.3 101040 89
2009-03-03 10:24 51°17.916 2°33.78 9.9 3 6.3 101040 89
2009-03-03 10:25 51°17.856 2°34.063 10.1 -999 6.3 101040 88
2009-03-03 10:26 51°17.795 2°34.341 11.1 1 6.3 101030 89
2009-03-03 10:27 51°17.753 2°34.638 9 5 6.3 101030 89
2009-03-03 10:28 51°17.72 2°34.925 8.1 4 6.3 101040 88
2009-03-03 10:29 51°17.689 2°35.214 8.4 4 6.3 101030 89
2009-03-03 10:30 51°17.66 2°35.49 8.8 4 6.3 101030 88
2009-03-03 10:31 51°17.575 2°35.736 13.7 354 6.2 101030 89
2009-03-03 10:32 51°17.427 2°35.908 12.6 282 6.3 101020 88
2009-03-03 10:33 51°17.243 2°36.032 14.9 344 6.3 101030 89
2009-03-03 10:34 51°17.047 2°36.104 14.6 283 6.3 101030 88
2009-03-03 10:35 51°16.849 2°36.163 13.1 341 6.3 101030 89
2009-03-03 10:36 51°16.645 2°36.226 16.1 281 6.4 101030 88
2009-03-03 10:37 51°16.445 2°36.285 15.5 340 6.4 101020 88
2009-03-03 10:38 51°16.24 2°36.351 16.6 281 6.4 101030 88
2009-03-03 10:39 51°16.041 2°36.414 14.9 340 6.4 101030 88
2009-03-03 10:40 51°15.838 2°36.483 14.6 286 6.5 101030 88
2009-03-03 10:41 51°15.643 2°36.545 14.1 341 6.5 101030 88
2009-03-03 10:42 51°15.442 2°36.611 15.7 281 6.5 101030 88
2009-03-03 10:43 51°15.249 2°36.676 15.3 282 6.5 101030 88
2009-03-03 10:44 51°15.05 2°36.736 15.1 286 6.5 101020 87
2009-03-03 10:45 51°14.858 2°36.801 13.9 343 6.6 101020 88
2009-03-03 10:46 51°14.657 2°36.877 13.6 281 6.6 101030 87
2009-03-03 10:47 51°14.466 2°36.937 13.9 341 6.6 101020 88
2009-03-03 10:48 51°14.274 2°36.994 14 282 6.6 101030 87
2009-03-03 10:49 51°14.072 2°37.026 12.6 341 6.6 101020 87
2009-03-03 10:50 51°13.869 2°37.055 15.2 286 6.6 101020 87
2009-03-03 10:51 51°13.669 2°37.09 15.4 344 6.6 101030 88
2009-03-03 10:52 51°13.479 2°37.144 12.6 341 6.6 101020 88
2009-03-03 10:53 51°13.284 2°37.19 14.9 342 6.6 101030 87
2009-03-03 10:54 51°13.089 2°37.235 14.8 282 6.7 101020 87
2009-03-03 10:55 51°12.884 2°37.285 14 343 6.7 101030 87
2009-03-03 10:56 51°12.677 2°37.306 15.7 278 6.7 101020 87
2009-03-03 10:57 51°12.472 2°37.257 14.3 335 6.7 101020 87
2009-03-03 10:58 51°12.263 2°37.17 17.6 281 6.7 101030 88
2009-03-03 10:59 51°12.058 2°37.073 15.3 333 6.8 101030 87
2009-03-03 11:00 51°11.854 2°36.983 16 285 6.8 101020 86
2009-03-03 11:01 51°11.646 2°36.875 14.7 332 6.8 101020 87
2009-03-03 11:02 51°11.446 2°36.737 15.8 283 6.8 101020 86
2009-03-03 11:03 51°11.248 2°36.588 14 330 6.8 101020 87
2009-03-03 11:04 51°11.053 2°36.43 15 284 6.8 101020 87
2009-03-03 11:05 51°10.861 2°36.278 15.6 331 6.9 101020 87
2009-03-03 11:06 51°10.661 2°36.122 13.5 285 6.8 101030 86
2009-03-03 11:07 51°10.465 2°35.97 13 279 6.9 101030 86
2009-03-03 11:08 51°10.27 2°35.822 14.9 330 6.8 101020 87
2009-03-03 11:09 51°10.068 2°35.751 14 278 6.9 101010 87
2009-03-03 11:10 51°9.921 2°35.917 8.9 2 6.9 101000 87
2009-03-03 11:11 51°9.932 2°36.19 5.9 18 6.8 101010 86
2009-03-03 11:12 51°10.005 2°36.452 5.8 11 6.8 101020 86
2009-03-03 11:13 51°10.081 2°36.723 8.1 20 6.8 101030 87
2009-03-03 11:14 51°10.119 2°37.009 10.3 15 6.8 101020 87
2009-03-03 11:15 51°10.133 2°37.298 8.7 17 6.8 101010 86
2009-03-03 11:16 51°10.146 2°37.597 7.4 15 6.8 101010 86
2009-03-03 11:17 51°10.154 2°37.892 8.7 13 6.8 101010 87
2009-03-03 11:18 51°10.154 2°38.184 8.8 12 6.8 101010 87
2009-03-03 11:19 51°10.163 2°38.484 8.5 12 6.8 101010 87
2009-03-03 11:20 51°10.174 2°38.773 9.8 13 6.8 101010 87
2009-03-03 11:21 51°10.173 2°39.073 10.6 10 6.7 101000 87
2009-03-03 11:22 51°10.164 2°39.365 10.9 8 6.7 101000 87
2009-03-03 11:23 51°10.152 2°39.665 8.3 6 6.8 101000 87
2009-03-03 11:24 51°10.14 2°39.962 10.8 10 6.8 100990 87
2009-03-03 11:25 51°10.13 2°40.255 9.9 14 6.8 100990 86
2009-03-03 11:26 51°10.119 2°40.559 9.2 12 6.8 101000 86
2009-03-03 11:27 51°10.113 2°40.857 10.5 15 6.8 101000 86
2009-03-03 11:28 51°10.131 2°41.146 8 16 6.8 101000 87
2009-03-03 11:29 51°10.165 2°41.441 7 14 6.8 101000 87
2009-03-03 11:30 51°10.202 2°41.729 7.4 16 6.8 101000 86
2009-03-03 11:31 51°10.227 2°41.994 7.4 11 6.8 101000 86
2009-03-03 11:32 51°10.245 2°42.229 9.5 16 6.8 101000 87
2009-03-03 11:33 51°10.264 2°42.417 7.4 32 6.8 101000 86
2009-03-03 11:34 51°10.299 2°42.486 4.5 55 6.9 101000 87
2009-03-03 11:35 51°10.325 2°42.486 7.3 57 7.1 101010 86
2009-03-03 11:36 51°10.344 2°42.469 10.8 82 7 101020 86
2009-03-03 11:37 51°10.356 2°42.445 9.8 306 7 101010 86
2009-03-03 11:38 51°10.364 2°42.42 7.3 281 7 101010 85
2009-03-03 11:39 51°10.366 2°42.397 8.7 310 7 101000 86
2009-03-03 11:40 51°10.373 2°42.362 7.1 284 6.9 100990 86
2009-03-03 11:41 51°10.432 2°42.33 7.8 52 7 101010 86
2009-03-03 11:42 51°10.49 2°42.313 5.9 75 7 100990 85
2009-03-03 11:43 51°10.525 2°42.278 6.6 53 7 100980 85
2009-03-03 11:44 51°10.571 2°42.27 6.6 43 6.9 100980 86
2009-03-03 11:45 51°10.586 2°42.386 7.1 27 7 100960 85
2009-03-03 11:46 51°10.635 2°42.599 7 21 7 100970 86
2009-03-03 11:47 51°10.705 2°42.862 6.3 18 7 100960 86
2009-03-03 11:48 51°10.776 2°43.136 7.2 20 6.9 100960 86
2009-03-03 11:49 51°10.845 2°43.407 5.2 14 6.9 100960 85
2009-03-03 11:50 51°10.94 2°43.66 8.1 25 6.9 100970 86
2009-03-03 11:51 51°11.037 2°43.91 6.7 25 6.9 100950 86
2009-03-03 11:52 51°11.134 2°44.155 6.5 27 6.9 100950 86
2009-03-03 11:53 51°11.235 2°44.409 4.8 22 6.9 100960 86
2009-03-03 11:54 51°11.334 2°44.659 7 25 6.9 100950 86
2009-03-03 11:55 51°11.437 2°44.898 3.5 22 7 100950 85
2009-03-03 11:56 51°11.54 2°45.141 6.4 19 7 100950 86
2009-03-03 11:57 51°11.628 2°45.395 6.3 17 7 100950 85
2009-03-03 11:58 51°11.701 2°45.665 6.3 17 6.9 100940 85
2009-03-03 11:59 51°11.777 2°45.928 6.8 22 6.9 100940 85
2009-03-03 12:00 51°11.856 2°46.183 6.3 17 6.9 100940 85
2009-03-03 12:01 51°11.933 2°46.446 7.6 14 6.9 100930 86
2009-03-03 12:02 51°12.014 2°46.71 7.7 19 6.9 100930 85
2009-03-03 12:03 51°12.079 2°46.98 8.6 17 6.8 100930 86
2009-03-03 12:04 51°12.138 2°47.254 7.1 20 6.9 100920 86
2009-03-03 12:05 51°12.193 2°47.525 6.6 13 6.9 100920 86
2009-03-03 12:06 51°12.249 2°47.802 7.3 21 6.9 100910 86
2009-03-03 12:07 51°12.306 2°48.083 6.8 12 6.9 100910 86
2009-03-03 12:08 51°12.366 2°48.357 6.7 17 7 100920 84
2009-03-03 12:09 51°12.429 2°48.63 7 15 7 100910 85
2009-03-03 12:10 51°12.489 2°48.902 8 13 7 100910 85
2009-03-03 12:11 51°12.545 2°49.182 8.1 13 7 100910 85
2009-03-03 12:12 51°12.605 2°49.466 8.1 10 7 100910 85
2009-03-03 12:13 51°12.665 2°49.743 6.1 18 7 100900 84
2009-03-03 12:14 51°12.729 2°50.012 8 26 7 100910 85
2009-03-03 12:15 51°12.803 2°50.285 6.5 15 7 100900 85
2009-03-03 12:16 51°12.897 2°50.541 5.3 26 7.1 100900 85
2009-03-03 12:17 51°12.999 2°50.784 6.1 20 7.1 100900 85
2009-03-03 12:18 51°13.104 2°51.026 5.9 21 7.1 100900 85
2009-03-03 12:19 51°13.208 2°51.262 5.3 19 7.1 100890 85
2009-03-03 12:20 51°13.302 2°51.478 6.5 27 7.1 100890 84
2009-03-03 12:21 51°13.391 2°51.621 4.2 58 7.1 100890 85
2009-03-03 12:22 51°13.447 2°51.576 6.4 308 7.2 100890 84
2009-03-03 12:23 51°13.468 2°51.516 9.1 304 7.2 100900 84
2009-03-03 12:24 51°13.478 2°51.474 9.1 280 7.2 100900 84
2009-03-03 12:25 51°13.482 2°51.441 9.8 305 7.2 100900 84
2009-03-03 12:26 51°13.485 2°51.412 11.6 278 7.2 100900 84
2009-03-03 12:27 51°13.487 2°51.387 9.9 306 7.2 100900 85
2009-03-03 12:28 51°13.491 2°51.365 10.7 286 7.2 100890 84
2009-03-03 12:29 51°13.492 2°51.32 10 302 7.2 100900 84
2009-03-03 12:30 51°13.45 2°51.255 10.4 279 7.3 100870 84
2009-03-03 12:31 51°13.407 2°51.292 8.6 23 7.3 100850 84
2009-03-03 12:32 51°13.442 2°51.462 7 22 7.2 100860 84
2009-03-03 12:33 51°13.532 2°51.718 7.7 19 7.2 100860 85
2009-03-03 12:34 51°13.631 2°51.967 7.5 24 7.2 100870 85
2009-03-03 12:35 51°13.734 2°52.207 5.3 17 7.2 100860 84
2009-03-03 12:36 51°13.837 2°52.458 6.8 16 7.2 100850 84
2009-03-03 12:37 51°13.937 2°52.709 6.9 17 7.2 100850 84
2009-03-03 12:38 51°14.034 2°52.964 4.6 13 7.2 100850 84
2009-03-03 12:39 51°14.13 2°53.215 7.6 16 7.2 100840 85
2009-03-03 12:40 51°14.231 2°53.473 5.9 17 7.2 100840 84
2009-03-03 12:41 51°14.333 2°53.727 4.6 24 7.3 100840 84
2009-03-03 12:42 51°14.445 2°53.962 6.1 21 7.3 100840 85
2009-03-03 12:43 51°14.572 2°54.186 4.1 40 7.3 100840 84
2009-03-03 12:44 51°14.713 2°54.399 4.7 32 7.3 100840 84
2009-03-03 12:45 51°14.84 2°54.563 4.4 44 7.4 100840 84
2009-03-03 12:46 51°14.888 2°54.652 8.3 41 7.4 100820 84
2009-03-03 12:47 51°14.931 2°54.763 4.7 36 7.4 100810 85
2009-03-03 12:48 51°15.013 2°54.929 2 31 7.4 100820 84
2009-03-03 12:49 51°15.127 2°55.123 4.7 22 7.4 100820 84
2009-03-03 12:50 51°15.253 2°55.338 6.2 24 7.4 100820 84
2009-03-03 12:51 51°15.382 2°55.564 6.7 27 7.5 100820 83
2009-03-03 12:52 51°15.518 2°55.772 4.6 56 7.5 100820 84
2009-03-03 12:53 51°15.657 2°55.975 4.3 24 7.5 100820 83
2009-03-03 12:54 51°15.792 2°56.178 4.7 31 7.5 100810 83
2009-03-03 12:55 51°15.922 2°56.401 6.4 28 7.5 100810 83
2009-03-03 12:56 51°16.04 2°56.635 6.9 26 7.4 100800 83
2009-03-03 12:57 51°16.152 2°56.873 6.6 19 7.4 100800 83
2009-03-03 12:58 51°16.266 2°57.114 5.7 31 7.4 100800 83
2009-03-03 12:59 51°16.381 2°57.359 6.6 26 7.4 100800 83
2009-03-03 13:00 51°16.49 2°57.605 5.7 29 7.4 100790 84
2009-03-03 13:01 51°16.596 2°57.852 6.6 19 7.4 100800 83
2009-03-03 13:02 51°16.707 2°58.105 8.6 17 7.4 100800 83
2009-03-03 13:03 51°16.818 2°58.353 6.2 24 7.4 100790 82
2009-03-03 13:04 51°16.929 2°58.598 4.8 21 7.4 100790 82
2009-03-03 13:05 51°17.038 2°58.838 7.7 21 7.4 100790 83
2009-03-03 13:06 51°17.141 2°59.097 6.8 33 7.4 100780 83
2009-03-03 13:07 51°17.241 2°59.354 6.2 16 7.4 100780 83
2009-03-03 13:08 51°17.338 2°59.611 6.9 14 7.4 100780 83
2009-03-03 13:09 51°17.439 2°59.871 6.2 17 7.4 100780 83
2009-03-03 13:10 51°17.544 3°0.134 6.7 23 7.4 100780 84
2009-03-03 13:11 51°17.654 3°0.386 7.8 23 7.3 100780 84
2009-03-03 13:12 51°17.759 3°0.638 7.1 25 7.3 100770 83
2009-03-03 13:13 51°17.872 3°0.888 6.3 27 7.4 100780 83
2009-03-03 13:14 51°17.981 3°1.138 4.4 21 7.4 100780 83
2009-03-03 13:15 51°18.09 3°1.384 6.9 19 7.4 100780 83
2009-03-03 13:16 51°18.196 3°1.629 5.4 29 7.4 100770 83
2009-03-03 13:17 51°18.303 3°1.883 4.6 19 7.4 100780 83
2009-03-03 13:18 51°18.408 3°2.136 5 27 7.4 100770 83
2009-03-03 13:19 51°18.519 3°2.375 5.9 21 7.4 100770 84
2009-03-03 13:20 51°18.628 3°2.62 5.9 27 7.4 100770 84
2009-03-03 13:21 51°18.74 3°2.868 6.1 27 7.4 100770 83
2009-03-03 13:22 51°18.846 3°3.115 5.9 27 7.4 100770 83
2009-03-03 13:23 51°18.951 3°3.359 5.7 29 7.4 100760 83
2009-03-03 13:24 51°19.059 3°3.606 4.4 26 7.5 100760 82
2009-03-03 13:25 51°19.179 3°3.845 4.4 22 7.5 100760 82
2009-03-03 13:26 51°19.312 3°4.061 4.5 36 7.4 100760 82
2009-03-03 13:27 51°19.466 3°4.23 2.9 44 7.5 100760 83
2009-03-03 13:28 51°19.631 3°4.387 3 81 7.5 100750 82
2009-03-03 13:29 51°19.794 3°4.544 3.3 76 7.5 100750 82
2009-03-03 13:30 51°19.954 3°4.707 2.3 36 7.5 100750 82
2009-03-03 13:31 51°20.11 3°4.873 3.4 35 7.5 100750 82
2009-03-03 13:32 51°20.271 3°5.035 3.9 79 7.4 100740 82
2009-03-03 13:33 51°20.433 3°5.199 3.2 73 7.4 100740 83
2009-03-03 13:34 51°20.592 3°5.368 2.2 43 7.4 100740 83
2009-03-03 13:35 51°20.755 3°5.537 2.3 33 7.4 100740 82
2009-03-03 13:36 51°20.909 3°5.72 5.8 19 7.4 100740 83
2009-03-03 13:37 51°21.013 3°5.97 5.9 20 7.4 100730 83
2009-03-03 13:38 51°21.098 3°6.252 7 18 7.3 100730 83
2009-03-03 13:39 51°21.172 3°6.539 8 17 7.3 100730 83
2009-03-03 13:40 51°21.234 3°6.837 7.9 11 7.3 100730 83
2009-03-03 13:41 51°21.302 3°7.124 6.3 11 7.3 100720 83
2009-03-03 13:42 51°21.371 3°7.425 6.3 17 7.3 100720 84
2009-03-03 13:43 51°21.447 3°7.716 6.4 19 7.2 100730 83
2009-03-03 13:44 51°21.524 3°8.001 6.1 18 7.2 100720 84
2009-03-03 13:45 51°21.606 3°8.292 7.7 21 7.2 100720 84
2009-03-03 13:46 51°21.7 3°8.583 6.5 13 7.2 100720 83
2009-03-03 13:47 51°21.796 3°8.868 6.9 21 7.2 100720 84
2009-03-03 13:48 51°21.891 3°9.149 7.3 25 7.3 100720 84
2009-03-03 13:49 51°21.993 3°9.442 7.1 22 7.3 100720 83
2009-03-03 13:50 51°22.094 3°9.733 6 16 7.3 100720 82
2009-03-03 13:51 51°22.198 3°10.023 6.2 17 7.3 100720 83
2009-03-03 13:52 51°22.297 3°10.317 6.3 14 7.3 100720 83
2009-03-03 13:53 51°22.368 3°10.642 7.9 16 7.3 100710 82
2009-03-03 13:54 51°22.424 3°10.961 9.2 19 7.3 100700 83
2009-03-03 13:55 51°22.467 3°11.183 8.9 32 7.4 100700 83
2009-03-03 13:56 51°22.498 3°11.333 9.1 31 7.4 100690 83
2009-03-03 13:57 51°22.529 3°11.421 8.2 57 7.5 100700 83
2009-03-03 13:58 51°22.566 3°11.466 7.6 50 7.5 100710 82
2009-03-03 13:59 51°22.598 3°11.482 9.2 59 7.7 100720 82
2009-03-03 14:00 51°22.618 3°11.494 6.4 303 7.7 100720 82
2009-03-03 14:01 51°22.632 3°11.508 6.4 279 7.7 100720 81
2009-03-03 14:02 51°22.645 3°11.528 10.8 309 7.7 100720 82
2009-03-03 14:03 51°22.656 3°11.551 11.1 308 7.7 100710 82
2009-03-03 14:04 51°22.67 3°11.569 11.8 302 7.7 100710 82
2009-03-03 14:05 51°22.665 3°11.455 15.7 280 7.7 100690 82
2009-03-03 14:06 51°22.6 3°11.198 16.7 306 7.7 100680 82
2009-03-03 14:07 51°22.517 3°10.937 17.8 279 7.7 100670 81
2009-03-03 14:08 51°22.433 3°10.673 13.4 301 7.7 100670 81
2009-03-03 14:09 51°22.35 3°10.407 13.7 281 7.6 100670 82
2009-03-03 14:10 51°22.269 3°10.151 15.1 303 7.6 100660 82
2009-03-03 14:11 51°22.158 3°9.912 12.9 280 7.6 100660 82
2009-03-03 14:12 51°22.045 3°9.677 12.8 309 7.6 100670 82
2009-03-03 14:13 51°21.932 3°9.449 12.9 280 7.5 100670 82
2009-03-03 14:14 51°21.82 3°9.205 15.8 305 7.5 100660 82
2009-03-03 14:15 51°21.708 3°8.966 14.3 306 7.6 100660 82
2009-03-03 14:16 51°21.598 3°8.723 13.4 306 7.6 100660 82
2009-03-03 14:17 51°21.487 3°8.481 16.3 307 7.6 100650 82
2009-03-03 14:18 51°21.38 3°8.242 15.3 307 7.6 100650 82
2009-03-03 14:19 51°21.28 3°7.983 16.3 280 7.6 100650 82
2009-03-03 14:20 51°21.199 3°7.711 15.9 306 7.6 100640 82
2009-03-03 14:21 51°21.123 3°7.44 12.6 309 7.6 100640 83
2009-03-03 14:22 51°21.04 3°7.171 16.6 308 7.6 100640 82
2009-03-03 14:23 51°20.919 3°6.937 17.8 307 7.6 100630 82
2009-03-03 14:24 51°20.792 3°6.717 12.8 309 7.6 100630 82
2009-03-03 14:25 51°20.666 3°6.495 17 285 7.8 100620 82
2009-03-03 14:26 51°20.539 3°6.273 15.3 305 7.7 100600 81
2009-03-03 14:27 51°20.414 3°6.051 15.5 305 7.8 100590 82
2009-03-03 14:28 51°20.292 3°5.834 13 304 7.8 100590 82
2009-03-03 14:29 51°20.167 3°5.61 13.9 307 7.8 100590 82
2009-03-03 14:30 51°20.046 3°5.394 14.6 305 7.8 100590 82
2009-03-03 14:31 51°19.925 3°5.175 15.5 282 7.8 100580 81
2009-03-03 14:32 51°19.804 3°4.957 16.4 306 7.9 100580 81
2009-03-03 14:33 51°19.684 3°4.74 14.2 301 7.9 100580 82
2009-03-03 14:34 51°19.564 3°4.522 16.7 302 7.9 100580 80
2009-03-03 14:35 51°19.443 3°4.305 16.3 285 7.9 100570 81
2009-03-03 14:36 51°19.319 3°4.09 15.5 305 7.9 100570 80
2009-03-03 14:37 51°19.2 3°3.875 16.7 283 7.9 100570 81
2009-03-03 14:38 51°19.082 3°3.663 14.6 282 8 100560 80
2009-03-03 14:39 51°18.963 3°3.454 14.2 303 8 100550 80
2009-03-03 14:40 51°18.854 3°3.232 15 280 8 100560 80
2009-03-03 14:41 51°18.749 3°3.012 15.3 306 8 100560 80
2009-03-03 14:42 51°18.646 3°2.787 16.8 282 8.1 100550 80
2009-03-03 14:43 51°18.545 3°2.562 19.4 305 8.1 100540 79
2009-03-03 14:44 51°18.443 3°2.338 16.4 280 8.1 100540 78
2009-03-03 14:45 51°18.341 3°2.116 17 306 8.2 100530 78
2009-03-03 14:46 51°18.24 3°1.892 15.3 282 8.2 100510 78
2009-03-03 14:47 51°18.136 3°1.665 16 308 8.2 100520 79
2009-03-03 14:48 51°18.031 3°1.448 17.6 281 8.2 100520 79
2009-03-03 14:49 51°17.93 3°1.226 13.4 309 8.3 100520 79
2009-03-03 14:50 51°17.829 3°1.003 15.8 278 8.2 100520 79
2009-03-03 14:51 51°17.726 3°0.786 13.8 306 8.2 100520 80
2009-03-03 14:52 51°17.626 3°0.571 13.6 284 8.2 100530 80
2009-03-03 14:53 51°17.524 3°0.352 13.8 307 8.2 100510 79
2009-03-03 14:54 51°17.425 3°0.135 14 281 8.2 100510 79
2009-03-03 14:55 51°17.324 2°59.917 14.8 307 8.2 100510 80
2009-03-03 14:56 51°17.226 2°59.703 13.2 285 8.2 100510 79
2009-03-03 14:57 51°17.121 2°59.482 14.9 308 8.2 100510 79
2009-03-03 14:58 51°17.019 2°59.275 16 285 8.1 100510 80
2009-03-03 14:59 51°16.92 2°59.062 16.1 317 8.1 100510 80
2009-03-03 15:00 51°16.82 2°58.853 17.5 283 8.2 100490 79
2009-03-03 15:01 51°16.721 2°58.638 19.7 305 8.3 100490 79
2009-03-03 15:02 51°16.629 2°58.426 18.2 283 8.3 100490 79
2009-03-03 15:03 51°16.533 2°58.213 17.3 281 8.3 100500 79
2009-03-03 15:04 51°16.434 2°58.004 12.1 35 8.3 100500 79
2009-03-03 15:05 51°16.333 2°57.802 13.7 285 8.3 100490 79
2009-03-03 15:06 51°16.232 2°57.588 13.2 304 8.3 100480 80
2009-03-03 15:07 51°16.136 2°57.386 15.8 284 8.3 100480 79
2009-03-03 15:08 51°16.04 2°57.177 16.4 306 8.4 100480 79
2009-03-03 15:09 51°15.948 2°56.964 13.2 282 8.4 100470 79
2009-03-03 15:10 51°15.853 2°56.752 14.7 316 8.3 100470 79
2009-03-03 15:11 51°15.753 2°56.54 13.5 284 8.3 100460 80
2009-03-03 15:12 51°15.659 2°56.348 15.5 310 8.3 100470 80
2009-03-03 15:13 51°15.596 2°56.214 15 235 8.3 100470 80
2009-03-03 15:14 51°15.552 2°56.12 10.8 308 8.3 100480 79
2009-03-03 15:15 51°15.486 2°55.977 13 33 8.2 100490 80
2009-03-03 15:16 51°15.396 2°55.781 15.7 307 8.3 100480 80
2009-03-03 15:17 51°15.31 2°55.589 12.4 282 8.2 100480 80
2009-03-03 15:18 51°15.242 2°55.421 14.6 305 8.3 100470 79
2009-03-03 15:19 51°15.17 2°55.243 11.4 282 8.3 100470 80
2009-03-03 15:20 51°15.064 2°55.047 14.9 321 8.3 100470 80
2009-03-03 15:21 51°14.928 2°54.896 12.2 322 8.2 100470 81
2009-03-03 15:22 51°14.79 2°54.744 14.8 303 8.2 100460 81
2009-03-03 15:23 51°14.624 2°54.768 12.9 283 8.2 100460 81
2009-03-03 15:24 51°14.468 2°54.9 10.5 344 8.3 100450 80
2009-03-03 15:25 51°14.385 2°55.067 6.3 282 8.3 100460 81
2009-03-03 15:26 51°14.303 2°55.202 8.6 352 8.3 100460 81
2009-03-03 15:27 51°14.209 2°55.332 8 338 8.3 100460 82
2009-03-03 15:28 51°14.111 2°55.43 7.2 336 8.4 100450 81
2009-03-03 15:29 51°14.019 2°55.495 6.1 334 8.4 100450 80
2009-03-03 15:30 51°13.922 2°55.567 8 342 8.4 100440 81
2009-03-03 15:31 51°13.823 2°55.636 8.7 339 8.4 100450 81
2009-03-03 15:32 51°13.741 2°55.731 10.8 358 8.4 100450 81
2009-03-03 15:33 51°13.689 2°55.845 7.5 358 8.4 100440 81
2009-03-03 15:34 51°13.662 2°55.939 5.1 7 8.4 100460 80
2009-03-03 15:35 51°13.662 2°55.958 5.3 3 8.4 100450 81